Terminal Aerodrome Forecast
Issued by NWS St Louis, MO

Home | Current Version | Previous Version | Text Only | Print | Product List | Glossary On
Versions: 1 2 3 4 5 6 7 8 9 10 11 12 13 14 15 16 17 18 19 20 21 22 23 24 25 26 27 28 29 30
633
FTUS43 KLSX 282323
TAFSTL
TAF
KSTL 282323Z 2900/3006 19014KT 4SM -TSRA BR SCT025 BKN050CB
     FM290200 23006KT P6SM FEW050 SCT250
     FM291500 29006KT P6SM FEW050 SCT250
     FM300300 VRB03KT P6SM SCT250=

USA.gov is the U.S. government's official web portal to all federal, state and local government web resources and services.